createdAt,value
2023-03-31T00:02:23.417Z,100221.84
2023-03-31T00:05:26.633Z,100222.03
2023-03-31T00:08:35.781Z,100210.53
2023-03-31T00:11:38.214Z,100212.50
2023-03-31T00:14:41.372Z,100178.69
2023-03-31T00:17:44.077Z,100220.09
2023-03-31T00:20:46.242Z,100212.00
2023-03-31T00:23:48.669Z,100174.56
2023-03-31T00:26:50.813Z,100186.34
2023-03-31T00:29:53.227Z,100200.88
2023-03-31T00:32:55.998Z,100191.97
2023-03-31T00:36:02.244Z,100192.78
2023-03-31T00:39:09.760Z,100173.78
2023-03-31T00:42:15.307Z,100162.28
2023-03-31T00:45:17.218Z,100187.53
2023-03-31T00:48:20.563Z,100193.41
2023-03-31T00:51:24.337Z,100196.91
2023-03-31T00:54:27.910Z,100188.06
2023-03-31T00:57:34.014Z,100171.13
2023-03-31T01:00:36.276Z,100193.81
2023-03-31T01:03:40.876Z,100189.72
2023-03-31T01:06:57.548Z,100178.03
2023-03-31T01:10:02.465Z,100192.38
2023-03-31T01:13:04.520Z,100171.38
2023-03-31T01:16:07.054Z,100186.72
2023-03-31T01:19:20.809Z,100181.88
2023-03-31T01:22:28.732Z,100183.22
2023-03-31T01:25:46.162Z,100179.97
2023-03-31T01:29:04.576Z,100173.91
2023-03-31T01:32:12.687Z,100178.28
2023-03-31T01:35:52.366Z,100185.84
2023-03-31T01:38:54.433Z,100182.13
2023-03-31T01:42:28.111Z,100169.69
2023-03-31T01:45:57.052Z,100174.09
2023-03-31T01:49:23.242Z,100175.06
2023-03-31T01:52:40.163Z,100161.63
2023-03-31T01:55:48.657Z,100179.34
2023-03-31T01:58:57.259Z,100136.34
2023-03-31T02:02:01.723Z,100178.72
2023-03-31T02:05:12.767Z,100179.91
2023-03-31T02:08:20.917Z,100180.72
2023-03-31T02:11:23.631Z,100175.34
2023-03-31T02:14:31.416Z,100162.50
2023-03-31T02:17:34.160Z,100140.63
2023-03-31T02:20:36.916Z,100166.72
2023-03-31T02:23:39.840Z,100153.25
2023-03-31T02:27:03.515Z,100152.75
2023-03-31T02:30:08.024Z,100153.47
2023-03-31T02:33:10.284Z,100169.88
2023-03-31T02:36:12.741Z,100170.63
2023-03-31T02:39:20.274Z,100173.97
2023-03-31T02:42:23.203Z,100124.31
2023-03-31T02:45:45.272Z,100171.19
2023-03-31T02:48:52.010Z,100165.66
2023-03-31T02:52:22.374Z,100156.41
2023-03-31T02:56:04.056Z,100154.22
2023-03-31T02:59:41.456Z,100160.50
2023-03-31T03:03:08.823Z,100144.25
2023-03-31T03:06:19.115Z,100138.22
2023-03-31T03:09:32.025Z,100133.59
2023-03-31T03:12:54.943Z,100155.00
2023-03-31T03:16:06.534Z,100128.84
2023-03-31T03:19:09.808Z,100141.44
2023-03-31T03:22:11.997Z,100136.91
2023-03-31T03:25:17.430Z,100146.19
2023-03-31T03:28:20.252Z,100141.59
2023-03-31T03:31:24.233Z,100154.28
2023-03-31T03:34:27.264Z,100137.50
2023-03-31T03:37:31.260Z,100134.22
2023-03-31T03:40:33.691Z,100155.94
2023-03-31T03:43:36.222Z,100148.41
2023-03-31T03:46:38.470Z,100134.41
2023-03-31T03:49:40.591Z,100125.63
2023-03-31T03:52:43.049Z,100150.91
2023-03-31T03:55:45.728Z,100137.50
2023-03-31T03:58:48.365Z,100154.34
2023-03-31T04:01:50.812Z,100128.25
2023-03-31T04:04:52.952Z,100150.91
2023-03-31T04:07:55.734Z,100156.63
2023-03-31T04:10:58.306Z,100116.56
2023-03-31T04:14:00.447Z,100103.84
2023-03-31T04:17:02.849Z,100112.34
2023-03-31T04:20:09.628Z,100138.63
2023-03-31T04:23:15.089Z,100115.75
2023-03-31T04:26:26.952Z,100120.13
2023-03-31T04:29:29.024Z,100137.69
2023-03-31T04:32:33.300Z,100135.53
2023-03-31T04:35:50.869Z,100115.78
2023-03-31T04:38:57.613Z,100103.81
2023-03-31T04:42:01.109Z,100112.59
2023-03-31T04:45:03.908Z,100112.75
2023-03-31T04:48:06.472Z,100120.53
2023-03-31T04:51:09.487Z,100094.69
2023-03-31T04:54:12.117Z,100131.75
2023-03-31T04:57:14.330Z,100127.44
2023-03-31T05:00:17.477Z,100095.66
2023-03-31T05:03:20.527Z,100084.19
2023-03-31T05:06:23.403Z,100076.84
2023-03-31T05:09:25.693Z,100086.03
2023-03-31T05:12:29.048Z,100114.88
2023-03-31T05:15:31.498Z,100106.88
2023-03-31T05:18:34.672Z,100081.59
2023-03-31T05:21:38.058Z,100087.28
2023-03-31T05:24:40.525Z,100094.44
2023-03-31T05:27:44.159Z,100109.25
2023-03-31T05:30:46.666Z,100087.84
2023-03-31T05:33:50.829Z,100060.41
2023-03-31T05:36:54.123Z,100099.44
2023-03-31T05:39:56.855Z,100108.63
2023-03-31T05:43:02.381Z,100057.53
2023-03-31T05:46:06.181Z,100095.44
2023-03-31T05:49:15.799Z,100094.53
2023-03-31T05:52:20.460Z,100066.13
2023-03-31T05:55:36.430Z,100093.28
2023-03-31T05:58:59.757Z,100090.47
2023-03-31T06:02:15.956Z,100067.13
2023-03-31T06:05:41.476Z,100059.44
2023-03-31T06:08:55.283Z,100083.66
2023-03-31T06:12:15.454Z,100061.34
2023-03-31T06:15:38.991Z,100091.72
2023-03-31T06:19:14.929Z,100087.41
2023-03-31T06:22:31.734Z,100093.63
2023-03-31T06:25:52.548Z,100079.78
2023-03-31T06:29:13.194Z,100065.66
2023-03-31T06:32:41.395Z,100087.00
2023-03-31T06:35:53.785Z,100064.84
2023-03-31T06:39:05.005Z,100088.81
2023-03-31T06:42:08.176Z,100046.91
2023-03-31T06:45:21.628Z,100035.94
2023-03-31T06:48:25.860Z,100047.09
2023-03-31T06:51:33.332Z,100064.66
2023-03-31T06:55:57.821Z,100079.75
2023-03-31T06:58:42.010Z,100064.03
2023-03-31T07:01:51.143Z,100076.44
2023-03-31T07:13:19.052Z,100067.72
2023-03-31T07:19:57.385Z,100089.53
2023-03-31T07:23:11.641Z,100074.41
2023-03-31T07:26:19.827Z,100068.75
2023-03-31T07:29:25.065Z,100042.50
2023-03-31T07:32:52.198Z,100028.47
2023-03-31T07:42:53.241Z,100024.97
2023-03-31T07:47:00.647Z,100050.28
2023-03-31T07:50:02.318Z,100010.16
2023-03-31T07:53:26.071Z,100011.53
2023-03-31T07:57:06.937Z,100032.09
2023-03-31T09:07:25.116Z,99904.03
2023-03-31T09:14:55.539Z,99936.22
2023-03-31T09:19:02.216Z,99900.97
2023-03-31T09:22:45.597Z,99902.41
2023-03-31T09:26:04.304Z,99900.13
2023-03-31T09:30:03.197Z,99915.06
2023-03-31T09:38:26.826Z,99907.03
2023-03-31T09:41:51.981Z,99880.94
2023-03-31T09:45:33.983Z,99894.31
2023-03-31T09:49:11.795Z,99863.66
2023-03-31T09:53:27.145Z,99858.78
2023-03-31T09:57:13.260Z,99885.22
2023-03-31T10:32:30.224Z,99822.44
2023-03-31T10:35:52.694Z,99807.44
2023-03-31T10:47:19.224Z,99772.75
2023-03-31T10:54:54.080Z,99798.84
2023-03-31T11:11:20.264Z,99773.31
2023-03-31T11:20:30.780Z,99768.19
2023-03-31T11:25:06.837Z,99748.16
2023-03-31T11:29:25.024Z,99749.22
2023-03-31T11:33:38.770Z,99729.91
2023-03-31T11:37:19.595Z,99721.38
2023-03-31T11:45:25.418Z,99688.09
2023-03-31T11:49:28.615Z,99673.72
2023-03-31T11:57:52.576Z,99651.38
2023-03-31T12:05:47.587Z,99622.28
2023-03-31T13:05:52.877Z,99566.81
2023-03-31T13:09:48.068Z,99554.59
2023-03-31T13:14:27.313Z,99533.84
2023-03-31T13:36:37.369Z,99473.47
2023-03-31T13:40:22.978Z,99464.75
2023-03-31T13:43:57.567Z,99487.91
2023-03-31T13:47:34.519Z,99465.81
2023-03-31T13:51:25.275Z,99452.63
2023-03-31T13:55:01.074Z,99448.06
2023-03-31T13:59:12.845Z,99446.84
2023-03-31T14:03:23.275Z,99451.56
2023-03-31T14:06:57.682Z,99419.69
2023-03-31T14:10:56.377Z,99434.09
2023-03-31T14:14:13.682Z,99434.31
2023-03-31T14:17:21.973Z,99413.78
2023-03-31T14:21:36.319Z,99417.03
2023-03-31T14:25:05.760Z,99401.47
2023-03-31T14:28:54.284Z,99385.59
2023-03-31T14:37:35.226Z,99362.44
2023-03-31T14:58:19.858Z,99342.91
2023-03-31T15:02:19.521Z,99340.91
2023-03-31T15:14:05.622Z,99342.84
2023-03-31T15:17:36.151Z,99336.69
2023-03-31T15:32:39.450Z,99317.22
2023-03-31T15:35:50.833Z,99333.84
2023-03-31T15:46:50.324Z,99293.13
2023-03-31T15:50:45.597Z,99296.91
2023-03-31T15:53:57.357Z,99281.41
2023-03-31T15:57:31.965Z,99279.63
2023-03-31T16:01:06.057Z,99258.78
2023-03-31T16:04:29.530Z,99273.94
2023-03-31T16:07:52.494Z,99269.81
2023-03-31T16:11:25.255Z,99292.31
2023-03-31T16:15:18.861Z,99257.06
2023-03-31T16:18:52.968Z,99274.06
2023-03-31T16:22:25.444Z,99253.44
2023-03-31T16:26:28.541Z,99219.78
2023-03-31T16:29:56.709Z,99263.88
2023-03-31T16:37:00.474Z,99275.91
2023-03-31T16:40:35.673Z,99250.19
2023-03-31T16:44:17.843Z,99298.47
2023-03-31T16:48:24.491Z,99301.94
2023-03-31T16:51:48.314Z,99301.81
2023-03-31T16:55:15.219Z,99298.59
2023-03-31T16:58:55.956Z,99269.06
2023-03-31T17:02:11.281Z,99295.59
2023-03-31T17:05:17.979Z,99286.28
2023-03-31T17:08:30.764Z,99295.56
2023-03-31T17:12:15.497Z,99282.00
2023-03-31T17:15:42.924Z,99310.78
2023-03-31T17:19:23.662Z,99283.66
2023-03-31T17:57:47.584Z,99310.47
2023-03-31T18:18:10.373Z,99278.34
2023-03-31T18:21:59.340Z,99282.25
2023-03-31T18:29:16.190Z,99302.13
2023-03-31T18:46:42.853Z,99299.94
2023-03-31T18:50:02.778Z,99293.41
2023-03-31T18:57:15.792Z,99295.16
2023-03-31T19:01:33.926Z,99318.03
2023-03-31T19:05:00.950Z,99313.88
2023-03-31T19:11:53.413Z,99340.41
2023-03-31T19:15:09.242Z,99338.28
2023-03-31T19:18:28.058Z,99333.00
2023-03-31T19:21:44.750Z,99318.72
2023-03-31T19:25:40.052Z,99341.59
2023-03-31T19:29:58.607Z,99341.81
2023-03-31T19:33:54.824Z,99338.75
2023-03-31T19:37:23.327Z,99330.56
2023-03-31T19:40:43.301Z,99325.94
2023-03-31T19:44:01.861Z,99290.41
2023-03-31T19:47:32.110Z,99328.63
2023-03-31T19:51:01.522Z,99301.78
2023-03-31T19:54:17.184Z,99315.75
2023-03-31T19:57:47.268Z,99313.75
2023-03-31T20:10:21.799Z,99278.75
2023-03-31T20:14:07.457Z,99303.78
2023-03-31T20:17:29.364Z,99300.53
2023-03-31T20:24:11.793Z,99303.16
2023-03-31T20:27:25.313Z,99290.66
2023-03-31T20:30:59.242Z,99294.28
2023-03-31T20:34:13.408Z,99266.84
2023-03-31T20:37:22.637Z,99253.53
2023-03-31T20:40:36.034Z,99278.53
2023-03-31T20:43:44.635Z,99252.16
2023-03-31T20:46:51.805Z,99268.06
2023-03-31T20:49:54.684Z,99262.22
2023-03-31T20:53:06.108Z,99257.56
2023-03-31T20:56:18.936Z,99226.50
2023-03-31T20:59:22.528Z,99241.84
2023-03-31T21:02:33.043Z,99252.34
2023-03-31T21:05:50.672Z,99239.41
2023-03-31T21:09:00.910Z,99239.81
2023-03-31T21:12:14.429Z,99229.31
2023-03-31T21:15:21.108Z,99244.06
2023-03-31T21:18:31.936Z,99226.31
2023-03-31T21:21:36.394Z,99227.31
2023-03-31T21:24:41.785Z,99234.38
2023-03-31T21:27:48.435Z,99229.13
2023-03-31T21:30:55.942Z,99227.50
2023-03-31T21:34:10.780Z,99222.69
2023-03-31T21:37:16.794Z,99211.38
2023-03-31T21:40:22.995Z,99217.25
2023-03-31T21:43:35.642Z,99207.97
2023-03-31T21:46:53.374Z,99215.22
2023-03-31T21:50:02.558Z,99204.53
2023-03-31T21:53:16.334Z,99238.41
2023-03-31T21:56:32.924Z,99235.19
2023-03-31T21:59:40.293Z,99227.31
2023-03-31T22:03:02.187Z,99239.22
2023-03-31T22:06:27.235Z,99237.38
2023-03-31T22:09:46.354Z,99215.44
2023-03-31T22:13:24.314Z,99248.50
2023-03-31T22:26:39.164Z,99225.09
2023-03-31T22:31:17.219Z,99230.16
2023-03-31T22:43:28.180Z,99210.59
2023-03-31T22:47:09.554Z,99223.31
2023-03-31T22:50:25.387Z,99222.50
2023-03-31T22:53:55.883Z,99222.28
2023-03-31T22:57:05.057Z,99229.75
2023-03-31T23:00:16.986Z,99225.50
2023-03-31T23:07:20.275Z,99169.03
2023-03-31T23:10:38.043Z,99217.63
2023-03-31T23:13:51.312Z,99213.41
2023-03-31T23:17:11.287Z,99208.16
2023-03-31T23:20:18.731Z,99207.56
2023-03-31T23:23:30.031Z,99188.38
2023-03-31T23:30:31.748Z,99187.56
2023-03-31T23:33:44.912Z,99184.34
2023-03-31T23:37:10.505Z,99207.53
2023-03-31T23:41:01.367Z,99185.72
2023-03-31T23:44:19.690Z,99215.75
2023-03-31T23:47:56.473Z,99224.63
2023-03-31T23:52:13.792Z,99230.25
2023-03-31T23:55:42.594Z,99210.47
2023-03-31T23:59:38.950Z,99227.78
